createdAt,value
2022-12-19T00:00:49.475Z,101498.97
2022-12-19T00:01:53.346Z,101502.31
2022-12-19T00:03:00.210Z,101503.94
2022-12-19T00:04:11.426Z,101502.16
2022-12-19T00:05:15.618Z,101496.06
2022-12-19T00:06:21.016Z,101491.91
2022-12-19T00:07:28.509Z,101492.63
2022-12-19T00:08:32.913Z,101496.97
2022-12-19T00:09:40.083Z,101500.38
2022-12-19T00:10:44.252Z,101500.06
2022-12-19T00:13:21.470Z,101498.16
2022-12-19T00:14:25.740Z,101489.50
2022-12-19T00:15:29.324Z,101497.22
2022-12-19T00:16:35.738Z,101494.00
2022-12-19T00:17:40.248Z,101479.31
2022-12-19T00:18:46.235Z,101485.25
2022-12-19T00:19:50.396Z,101484.47
2022-12-19T00:21:04.534Z,101494.75
2022-12-19T00:22:11.490Z,101484.13
2022-12-19T00:23:15.398Z,101488.03
2022-12-19T00:24:20.668Z,101485.94
2022-12-19T00:25:25.174Z,101490.97
2022-12-19T00:26:33.138Z,101485.94
2022-12-19T00:27:37.460Z,101489.25
2022-12-19T00:28:43.683Z,101493.59
2022-12-19T00:29:47.664Z,101490.19
2022-12-19T00:30:51.777Z,101491.06
2022-12-19T00:32:09.649Z,101492.81
2022-12-19T00:33:17.399Z,101486.91
2022-12-19T00:34:20.950Z,101486.78
2022-12-19T00:36:45.108Z,101490.31
2022-12-19T00:37:49.699Z,101491.19
2022-12-19T00:38:56.922Z,101493.81
2022-12-19T00:40:00.819Z,101490.31
2022-12-19T00:41:20.078Z,101489.34
2022-12-19T00:42:24.802Z,101485.03
2022-12-19T00:43:28.428Z,101485.06
2022-12-19T00:44:32.317Z,101495.25
2022-12-19T00:45:39.136Z,101483.84
2022-12-19T00:46:51.523Z,101488.19
2022-12-19T00:47:56.679Z,101489.06
2022-12-19T00:49:01.487Z,101490.81
2022-12-19T00:50:06.283Z,101487.41
2022-12-19T00:51:16.795Z,101483.78
2022-12-19T00:52:20.680Z,101484.78
2022-12-19T00:53:26.154Z,101479.63
2022-12-19T00:54:30.046Z,101480.44
2022-12-19T00:55:34.458Z,101483.06
2022-12-19T00:56:38.444Z,101483.94
2022-12-19T00:57:42.680Z,101486.53
2022-12-19T00:58:47.398Z,101487.50
2022-12-19T00:59:51.308Z,101483.06
2022-12-19T01:00:55.309Z,101483.03
2022-12-19T01:01:59.409Z,101485.59
2022-12-19T01:03:03.264Z,101490.75
2022-12-19T01:04:35.518Z,101486.44
2022-12-19T01:05:42.072Z,101492.22
2022-12-19T01:06:46.872Z,101486.38
2022-12-19T01:07:51.002Z,101484.69
2022-12-19T01:08:55.172Z,101479.31
2022-12-19T01:09:59.022Z,101473.81
2022-12-19T01:11:03.833Z,101472.56
2022-12-19T01:12:32.226Z,101459.00
2022-12-19T01:13:38.343Z,101451.16
2022-12-19T01:14:43.016Z,101453.63
2022-12-19T01:15:46.832Z,101450.03
2022-12-19T01:16:51.760Z,101443.81
2022-12-19T01:17:55.501Z,101449.78
2022-12-19T01:18:59.372Z,101440.94
2022-12-19T01:20:11.230Z,101445.22
2022-12-19T01:21:17.409Z,101454.53
2022-12-19T01:22:21.106Z,101451.75
2022-12-19T01:23:24.794Z,101452.47
2022-12-19T01:24:28.720Z,101452.38
2022-12-19T01:25:40.136Z,101439.97
2022-12-19T01:26:46.965Z,101434.13
2022-12-19T01:27:50.524Z,101435.88
2022-12-19T01:28:54.258Z,101435.81
2022-12-19T01:29:57.882Z,101436.28
2022-12-19T01:31:07.720Z,101434.38
2022-12-19T01:32:13.107Z,101441.78
2022-12-19T01:33:19.366Z,101442.41
2022-12-19T01:34:22.961Z,101444.84
2022-12-19T01:35:27.205Z,101439.78
2022-12-19T01:36:30.967Z,101433.16
2022-12-19T01:37:34.558Z,101428.69
2022-12-19T01:38:39.819Z,101421.63
2022-12-19T01:39:44.236Z,101425.56
2022-12-19T01:40:59.464Z,101422.94
2022-12-19T01:42:17.695Z,101419.25
2022-12-19T01:43:53.407Z,101420.13
2022-12-19T01:45:13.993Z,101419.91
2022-12-19T01:46:20.963Z,101427.41
2022-12-19T01:47:58.513Z,101416.63
2022-12-19T01:49:04.834Z,101418.78
2022-12-19T01:50:23.860Z,101411.22
2022-12-19T01:51:53.043Z,101413.72
2022-12-19T01:52:59.612Z,101422.13
2022-12-19T01:54:11.942Z,101417.97
2022-12-19T01:55:16.975Z,101424.00
2022-12-19T01:56:29.670Z,101422.47
2022-12-19T01:57:34.772Z,101417.53
2022-12-19T01:58:47.886Z,101419.13
2022-12-19T01:59:59.976Z,101409.47
2022-12-19T02:01:04.153Z,101405.19
2022-12-19T02:02:29.209Z,101401.00
2022-12-19T02:03:36.988Z,101402.75
2022-12-19T02:04:44.695Z,101401.06
2022-12-19T02:05:52.500Z,101407.28
2022-12-19T02:06:59.255Z,101403.31
2022-12-19T02:08:17.174Z,101399.22
2022-12-19T02:09:21.948Z,101398.50
2022-12-19T02:10:25.521Z,101402.06
2022-12-19T02:11:29.126Z,101395.38
2022-12-19T02:12:38.059Z,101392.03
2022-12-19T02:13:43.525Z,101396.41
2022-12-19T02:14:50.103Z,101390.66
2022-12-19T02:16:40.602Z,101387.41
2022-12-19T02:18:26.760Z,101393.56
2022-12-19T02:19:54.544Z,101383.53
2022-12-19T02:21:44.123Z,101380.94
2022-12-19T02:23:35.113Z,101380.94
2022-12-19T02:25:39.334Z,101392.19
2022-12-19T02:27:09.940Z,101378.88
2022-12-19T02:28:48.071Z,101383.25
2022-12-19T02:30:14.104Z,101373.72
2022-12-19T02:31:31.367Z,101370.38
2022-12-19T02:33:01.160Z,101371.34
2022-12-19T02:34:16.576Z,101372.22
2022-12-19T02:35:36.125Z,101364.56
2022-12-19T02:37:02.938Z,101366.94
2022-12-19T02:38:54.116Z,101365.44
2022-12-19T02:40:26.229Z,101356.94
2022-12-19T02:41:51.417Z,101353.56
2022-12-19T02:43:00.513Z,101349.47
2022-12-19T02:44:06.629Z,101356.34
2022-12-19T02:45:20.742Z,101354.63
2022-12-19T02:46:33.074Z,101363.44
2022-12-19T02:47:38.613Z,101356.38
2022-12-19T02:48:43.498Z,101357.16
2022-12-19T02:49:47.294Z,101359.78
2022-12-19T02:50:51.119Z,101353.75
2022-12-19T02:51:54.917Z,101348.50
2022-12-19T02:52:58.930Z,101347.63
2022-12-19T02:54:03.400Z,101340.81
2022-12-19T02:55:24.847Z,101350.19
2022-12-19T02:56:40.962Z,101344.13
2022-12-19T02:58:10.571Z,101344.91
2022-12-19T02:59:45.950Z,101346.53
2022-12-19T03:01:20.845Z,101343.97
2022-12-19T03:03:04.265Z,101338.91
2022-12-19T03:04:58.093Z,101338.75
2022-12-19T03:06:38.658Z,101334.28
2022-12-19T03:07:58.105Z,101330.31
2022-12-19T03:09:10.531Z,101328.78
2022-12-19T03:10:48.607Z,101326.44
2022-12-19T03:12:17.029Z,101325.63
2022-12-19T03:13:35.310Z,101323.97
2022-12-19T03:14:39.035Z,101335.41
2022-12-19T03:15:43.826Z,101325.19
2022-12-19T03:16:47.686Z,101319.34
2022-12-19T03:17:52.930Z,101319.19
2022-12-19T03:18:58.268Z,101318.53
2022-12-19T03:20:20.482Z,101317.75
2022-12-19T03:21:41.309Z,101325.34
2022-12-19T03:22:45.023Z,101322.88
2022-12-19T03:23:51.054Z,101326.31
2022-12-19T03:24:55.076Z,101324.75
2022-12-19T03:26:09.095Z,101324.00
2022-12-19T03:27:26.333Z,101318.00
2022-12-19T03:28:54.882Z,101315.50
2022-12-19T03:30:12.170Z,101314.75
2022-12-19T03:31:21.731Z,101321.66
2022-12-19T03:32:27.382Z,101312.22
2022-12-19T03:33:35.728Z,101317.38
2022-12-19T03:35:16.605Z,101319.25
2022-12-19T03:36:30.813Z,101322.00
2022-12-19T03:37:41.072Z,101326.19
2022-12-19T03:38:48.975Z,101328.81
2022-12-19T03:40:01.006Z,101326.47
2022-12-19T03:41:11.806Z,101323.03
2022-12-19T03:42:36.036Z,101322.25
2022-12-19T03:43:44.627Z,101330.00
2022-12-19T03:44:51.572Z,101333.19
2022-12-19T03:46:04.389Z,101335.47
2022-12-19T03:47:35.053Z,101337.47
2022-12-19T03:48:54.355Z,101338.41
2022-12-19T03:49:58.305Z,101343.66
2022-12-19T03:51:20.787Z,101335.03
2022-12-19T03:52:40.694Z,101342.00
2022-12-19T03:54:10.319Z,101341.22
2022-12-19T03:55:19.108Z,101342.19
2022-12-19T03:56:35.270Z,101341.38
2022-12-19T03:58:05.961Z,101342.00
2022-12-19T03:59:56.216Z,101346.56
2022-12-19T04:01:03.613Z,101345.75
2022-12-19T04:02:16.709Z,101342.41
2022-12-19T04:03:23.623Z,101348.63
2022-12-19T04:04:29.869Z,101339.19
2022-12-19T04:05:36.102Z,101342.84
2022-12-19T04:06:49.556Z,101337.69
2022-12-19T04:07:57.998Z,101342.00
2022-12-19T04:09:04.086Z,101339.47
2022-12-19T04:10:18.573Z,101348.28
2022-12-19T04:11:24.679Z,101344.00
2022-12-19T04:12:41.245Z,101340.66
2022-12-19T04:13:56.096Z,101343.13
2022-12-19T04:15:00.493Z,101343.31
2022-12-19T04:16:17.284Z,101329.41
2022-12-19T04:17:30.899Z,101332.81
2022-12-19T04:18:37.585Z,101335.38
2022-12-19T04:19:48.114Z,101326.59
2022-12-19T04:21:02.869Z,101323.72
2022-12-19T04:22:21.076Z,101323.09
2022-12-19T04:23:35.708Z,101324.88
2022-12-19T04:24:43.924Z,101327.53
2022-12-19T04:25:55.935Z,101323.38
2022-12-19T04:27:03.839Z,101320.56
2022-12-19T04:28:34.903Z,101323.28
2022-12-19T04:29:40.408Z,101311.34
2022-12-19T04:30:46.774Z,101319.91
2022-12-19T04:31:51.697Z,101311.25
2022-12-19T04:32:57.152Z,101318.22
2022-12-19T04:34:01.324Z,101317.53
2022-12-19T04:35:11.892Z,101314.03
2022-12-19T04:36:15.964Z,101306.44
2022-12-19T04:37:20.194Z,101306.09
2022-12-19T04:38:24.256Z,101291.41
2022-12-19T04:39:28.839Z,101296.88
2022-12-19T04:40:39.366Z,101297.69
2022-12-19T04:41:45.153Z,101298.50
2022-12-19T04:42:49.405Z,101298.66
2022-12-19T04:43:53.464Z,101297.03
2022-12-19T04:44:57.131Z,101292.72
2022-12-19T04:46:01.783Z,101285.78
2022-12-19T04:47:05.430Z,101289.94
2022-12-19T04:48:13.477Z,101290.81
2022-12-19T04:49:17.306Z,101294.22
2022-12-19T04:50:21.795Z,101293.34
2022-12-19T04:51:25.866Z,101304.44
2022-12-19T04:52:29.591Z,101300.13
2022-12-19T04:53:33.381Z,101297.41
2022-12-19T04:54:37.020Z,101294.81
2022-12-19T04:55:41.408Z,101294.66
2022-12-19T04:56:45.169Z,101289.47
2022-12-19T04:57:48.891Z,101283.47
2022-12-19T04:59:00.705Z,101280.72
2022-12-19T05:00:14.746Z,101277.91
2022-12-19T05:01:18.824Z,101280.38
2022-12-19T05:02:22.886Z,101281.78
2022-12-19T05:03:26.628Z,101276.63
2022-12-19T05:04:30.343Z,101276.69
2022-12-19T05:05:34.002Z,101277.63
2022-12-19T05:06:38.499Z,101277.44
2022-12-19T05:07:42.640Z,101277.50
2022-12-19T05:08:47.069Z,101270.38
2022-12-19T05:09:50.816Z,101264.38
2022-12-19T05:10:54.509Z,101269.53
2022-12-19T05:11:58.248Z,101270.47
2022-12-19T05:13:01.976Z,101270.41
2022-12-19T05:14:05.964Z,101266.91
2022-12-19T05:15:13.469Z,101278.69
2022-12-19T05:16:17.204Z,101284.75
2022-12-19T05:17:21.070Z,101283.94
2022-12-19T05:18:25.495Z,101284.88
2022-12-19T05:19:29.626Z,101285.81
2022-12-19T05:20:33.278Z,101282.41
2022-12-19T05:21:36.743Z,101284.94
2022-12-19T05:22:40.456Z,101288.44
2022-12-19T05:23:44.167Z,101294.25
2022-12-19T05:24:47.768Z,101279.03
2022-12-19T05:25:51.929Z,101285.94
2022-12-19T05:26:55.619Z,101279.25
2022-12-19T05:27:59.425Z,101286.16
2022-12-19T05:29:03.397Z,101283.59
2022-12-19T05:30:13.508Z,101283.50
2022-12-19T05:31:21.152Z,101285.16
2022-12-19T05:32:24.847Z,101285.63
2022-12-19T05:33:28.929Z,101283.06
2022-12-19T05:34:32.485Z,101280.44
2022-12-19T05:35:36.803Z,101277.97
2022-12-19T05:36:40.956Z,101280.59
2022-12-19T05:37:44.677Z,101278.00
2022-12-19T05:38:48.609Z,101275.91
2022-12-19T05:39:55.009Z,101272.56
2022-12-19T05:40:58.897Z,101277.84
2022-12-19T05:42:02.445Z,101280.25
2022-12-19T05:43:06.258Z,101269.81
2022-12-19T05:44:18.079Z,101280.09
2022-12-19T05:45:22.848Z,101279.06
2022-12-19T05:46:27.473Z,101279.94
2022-12-19T05:47:31.480Z,101279.69
2022-12-19T05:48:37.205Z,101283.94
2022-12-19T05:49:40.956Z,101282.19
2022-12-19T05:50:51.060Z,101290.75
2022-12-19T05:51:54.567Z,101295.03
2022-12-19T05:52:58.422Z,101292.44
2022-12-19T05:54:02.224Z,101294.06
2022-12-19T05:55:12.274Z,101293.75
2022-12-19T05:56:19.940Z,101291.06
2022-12-19T05:57:24.338Z,101286.84
2022-12-19T05:58:28.000Z,101284.41
2022-12-19T05:59:31.589Z,101289.56
2022-12-19T06:00:35.423Z,101282.72
2022-12-19T06:01:39.815Z,101281.94
2022-12-19T06:02:46.497Z,101284.63
2022-12-19T06:03:51.074Z,101274.31
2022-12-19T06:04:54.768Z,101277.97
2022-12-19T06:06:15.072Z,101275.97
2022-12-19T06:07:21.385Z,101276.84
2022-12-19T06:08:25.270Z,101268.00
2022-12-19T06:09:28.912Z,101269.53
2022-12-19T06:10:32.806Z,101268.41
2022-12-19T06:11:36.714Z,101270.97
2022-12-19T06:12:40.574Z,101262.94
2022-12-19T06:13:44.522Z,101262.13
2022-12-19T06:14:55.560Z,101259.25
2022-12-19T06:16:03.177Z,101260.78
2022-12-19T06:17:10.863Z,101258.94
2022-12-19T06:18:14.522Z,101260.53
2022-12-19T06:19:21.418Z,101255.22
2022-12-19T06:20:25.009Z,101262.13
2022-12-19T06:21:28.880Z,101265.75
2022-12-19T06:22:34.235Z,101263.34
2022-12-19T06:23:38.088Z,101259.84
2022-12-19T06:24:41.822Z,101257.56
2022-12-19T06:25:45.649Z,101259.41
2022-12-19T06:26:51.439Z,101261.84
2022-12-19T06:27:55.355Z,101262.81
2022-12-19T06:28:59.400Z,101261.84
2022-12-19T06:30:03.300Z,101260.13
2022-12-19T06:31:10.712Z,101263.75
2022-12-19T06:32:15.743Z,101254.13
2022-12-19T06:33:19.604Z,101265.16
2022-12-19T06:34:47.220Z,101260.91
2022-12-19T06:35:47.198Z,101260.22
2022-12-19T06:36:50.862Z,101262.03
2022-12-19T06:37:59.388Z,101259.66
2022-12-19T06:39:13.904Z,101260.56
2022-12-19T06:40:37.694Z,101256.75
2022-12-19T06:42:01.205Z,101257.78
2022-12-19T06:43:06.835Z,101255.09
2022-12-19T06:44:18.132Z,101254.28
2022-12-19T06:45:21.698Z,101261.28
2022-12-19T06:46:25.348Z,101246.88
2022-12-19T06:47:28.997Z,101248.31
2022-12-19T06:48:33.890Z,101249.34
2022-12-19T06:49:42.578Z,101252.06
2022-12-19T06:50:46.438Z,101251.38
2022-12-19T06:51:52.961Z,101249.63
2022-12-19T06:52:56.678Z,101257.00
2022-12-19T06:54:01.239Z,101253.06
2022-12-19T06:55:09.481Z,101261.81
2022-12-19T06:56:16.401Z,101258.31
2022-12-19T06:57:20.374Z,101261.09
2022-12-19T06:58:24.784Z,101254.09
2022-12-19T06:59:28.491Z,101250.56
2022-12-19T07:00:36.527Z,101247.91
2022-12-19T07:02:04.787Z,101250.16
2022-12-19T07:03:23.139Z,101243.09
2022-12-19T07:05:03.138Z,101244.44
2022-12-19T07:06:13.558Z,101249.91
2022-12-19T07:07:17.437Z,101251.72
2022-12-19T07:08:21.632Z,101255.09
2022-12-19T07:09:27.953Z,101254.41
2022-12-19T07:10:32.190Z,101242.41
2022-12-19T07:11:35.882Z,101256.88
2022-12-19T07:12:39.747Z,101254.91
2022-12-19T07:13:43.480Z,101249.47
2022-12-19T07:14:52.963Z,101254.13
2022-12-19T07:16:04.487Z,101251.81
2022-12-19T07:17:12.971Z,101255.47
2022-12-19T07:18:16.927Z,101248.63
2022-12-19T07:19:22.749Z,101247.19
2022-12-19T07:20:28.162Z,101248.13
2022-12-19T07:21:31.968Z,101250.56
2022-12-19T07:22:37.103Z,101247.03
2022-12-19T07:23:43.073Z,101247.34
2022-12-19T07:24:47.289Z,101248.38
2022-12-19T07:25:51.554Z,101247.50
2022-12-19T07:26:56.347Z,101250.44
2022-12-19T07:28:00.693Z,101245.50
2022-12-19T07:29:04.969Z,101249.94
2022-12-19T07:30:13.918Z,101247.34
2022-12-19T07:31:17.526Z,101245.59
2022-12-19T07:32:22.242Z,101243.91
2022-12-19T07:33:26.124Z,101241.38
2022-12-19T07:34:32.810Z,101245.59
2022-12-19T07:35:36.650Z,101251.88
2022-12-19T07:36:40.332Z,101256.25
2022-12-19T07:37:44.061Z,101255.59
2022-12-19T07:38:48.224Z,101258.22
2022-12-19T07:39:53.297Z,101252.50
2022-12-19T07:41:00.472Z,101252.63
2022-12-19T07:42:04.762Z,101256.13
2022-12-19T07:43:16.959Z,101257.22
2022-12-19T07:44:20.913Z,101253.81
2022-12-19T07:45:24.556Z,101257.25
2022-12-19T07:46:31.429Z,101258.41
2022-12-19T07:47:36.071Z,101254.06
2022-12-19T07:48:39.986Z,101249.16
2022-12-19T07:49:44.028Z,101246.75
2022-12-19T07:50:50.760Z,101240.84
2022-12-19T07:51:54.599Z,101241.78
2022-12-19T07:52:59.262Z,101237.44
2022-12-19T07:54:03.405Z,101241.81
2022-12-19T07:55:13.664Z,101242.00
2022-12-19T07:56:17.872Z,101239.44
2022-12-19T07:57:21.780Z,101243.91
2022-12-19T07:58:25.512Z,101241.19
2022-12-19T07:59:33.366Z,101238.06
2022-12-19T08:00:42.699Z,101232.09
2022-12-19T08:01:50.384Z,101238.06
2022-12-19T08:02:54.596Z,101236.38
2022-12-19T08:03:58.748Z,101237.38
2022-12-19T08:05:06.421Z,101241.75
2022-12-19T08:06:15.586Z,101237.47
2022-12-19T08:07:19.659Z,101230.56
2022-12-19T08:08:23.329Z,101234.06
2022-12-19T08:09:27.938Z,101244.53
2022-12-19T08:10:31.539Z,101241.84
2022-12-19T08:11:35.694Z,101240.94
2022-12-19T08:12:39.861Z,101241.94
2022-12-19T08:13:46.898Z,101235.72
2022-12-19T08:14:55.569Z,101238.59
2022-12-19T08:16:02.125Z,101229.25
2022-12-19T08:17:21.844Z,101236.97
2022-12-19T08:18:26.153Z,101243.19
2022-12-19T08:19:29.826Z,101235.59
2022-12-19T08:20:33.544Z,101228.66
2022-12-19T08:21:40.333Z,101225.97
2022-12-19T08:22:53.491Z,101229.44
2022-12-19T08:23:57.991Z,101226.84
2022-12-19T08:25:01.885Z,101220.03
2022-12-19T08:26:12.845Z,101215.75
2022-12-19T08:27:17.791Z,101220.16
2022-12-19T08:28:24.166Z,101215.09
2022-12-19T08:29:28.485Z,101215.16
2022-12-19T08:30:32.212Z,101232.25
2022-12-19T08:31:35.967Z,101211.56
2022-12-19T08:32:40.438Z,101214.72
2022-12-19T08:33:45.155Z,101207.66
2022-12-19T08:34:50.306Z,101209.44
2022-12-19T08:35:54.244Z,101218.13
2022-12-19T08:37:02.004Z,101215.66
2022-12-19T08:38:08.841Z,101212.22
2022-12-19T08:39:15.636Z,101200.41
2022-12-19T08:40:26.604Z,101203.13
2022-12-19T08:41:30.981Z,101209.03
2022-12-19T08:42:35.277Z,101207.31
2022-12-19T08:43:39.435Z,101199.75
2022-12-19T08:44:43.291Z,101203.34
2022-12-19T08:45:50.472Z,101197.50
2022-12-19T08:46:54.333Z,101203.59
2022-12-19T08:47:58.231Z,101198.28
2022-12-19T08:49:02.779Z,101191.47
2022-12-19T08:50:10.393Z,101183.06
2022-12-19T08:51:16.971Z,101187.44
2022-12-19T08:52:20.785Z,101178.78
2022-12-19T08:53:28.111Z,101185.84
2022-12-19T08:54:32.343Z,101178.00
2022-12-19T08:55:40.866Z,101172.06
2022-12-19T08:56:46.337Z,101169.66
2022-12-19T08:57:51.196Z,101180.22
2022-12-19T08:58:56.210Z,101177.66
2022-12-19T09:00:10.860Z,101183.94
2022-12-19T09:01:21.365Z,101181.47
2022-12-19T09:02:26.471Z,101170.16
2022-12-19T09:03:45.859Z,101167.69
2022-12-19T09:05:58.413Z,101165.09
2022-12-19T09:06:19.191Z,101164.22
2022-12-19T09:07:23.598Z,101164.28
2022-12-19T09:08:31.749Z,101161.59
2022-12-19T09:09:35.560Z,101170.25
2022-12-19T09:10:39.593Z,101170.31
2022-12-19T09:11:46.705Z,101172.22
2022-12-19T09:12:55.950Z,101171.41
2022-12-19T09:14:01.712Z,101174.91
2022-12-19T09:15:06.844Z,101175.16
2022-12-19T09:16:21.861Z,101178.53
2022-12-19T09:17:29.000Z,101177.06
2022-12-19T09:18:34.884Z,101177.03
2022-12-19T09:19:38.439Z,101180.59
2022-12-19T09:20:43.372Z,101178.94
2022-12-19T09:21:47.373Z,101181.66
2022-12-19T09:22:53.315Z,101182.41
2022-12-19T09:24:07.199Z,101176.75
2022-12-19T09:25:15.321Z,101174.50
2022-12-19T09:26:20.263Z,101176.53
2022-12-19T09:27:24.915Z,101176.91
2022-12-19T09:28:28.727Z,101171.22
2022-12-19T09:29:35.596Z,101169.91
2022-12-19T09:30:39.562Z,101180.63
2022-12-19T09:31:43.621Z,101177.41
2022-12-19T09:32:50.402Z,101177.69
2022-12-19T09:33:54.179Z,101164.97
2022-12-19T09:34:58.074Z,101173.00
2022-12-19T09:36:03.614Z,101160.91
2022-12-19T09:37:16.918Z,101159.16
2022-12-19T09:38:24.010Z,101157.56
2022-12-19T09:39:28.063Z,101151.56
2022-12-19T09:40:56.985Z,101144.88
2022-12-19T09:42:04.075Z,101138.03
2022-12-19T09:43:41.247Z,101127.84
2022-12-19T09:45:18.773Z,101116.91
2022-12-19T09:46:52.816Z,101119.47
2022-12-19T09:48:00.641Z,101122.34
2022-12-19T09:49:19.076Z,101126.75
2022-12-19T09:51:10.425Z,101126.13
2022-12-19T09:52:34.495Z,101124.31
2022-12-19T09:54:12.125Z,101119.59
2022-12-19T09:55:31.741Z,101116.03
2022-12-19T09:56:45.690Z,101115.31
2022-12-19T09:58:18.244Z,101113.63
2022-12-19T09:59:53.890Z,101125.00
2022-12-19T10:01:11.466Z,101119.06
2022-12-19T10:02:33.897Z,101127.00
2022-12-19T10:03:45.332Z,101121.72
2022-12-19T10:05:58.442Z,101125.97
2022-12-19T10:07:15.966Z,101130.34
2022-12-19T10:08:50.022Z,101142.41
2022-12-19T10:12:35.428Z,101137.94
2022-12-19T10:12:37.905Z,101131.34
2022-12-19T10:13:35.325Z,101119.81
2022-12-19T10:15:13.555Z,101127.63
2022-12-19T10:17:22.618Z,101112.88
2022-12-19T10:18:56.455Z,101114.56
2022-12-19T10:20:35.689Z,101104.47
2022-12-19T10:24:01.826Z,101102.78
2022-12-19T10:25:54.820Z,101097.75
2022-12-19T10:27:21.294Z,101090.78
2022-12-19T10:29:00.604Z,101085.44
2022-12-19T10:30:20.937Z,101076.84
2022-12-19T10:31:45.382Z,101079.31
2022-12-19T10:33:32.874Z,101080.50
2022-12-19T10:34:49.527Z,101076.03
2022-12-19T10:36:02.596Z,101075.28
2022-12-19T10:37:41.008Z,101078.25
2022-12-19T10:39:12.091Z,101066.91
2022-12-19T10:40:29.096Z,101071.34
2022-12-19T10:41:39.308Z,101066.44
2022-12-19T10:43:07.547Z,101061.47
2022-12-19T10:44:16.096Z,101058.03
2022-12-19T10:45:23.658Z,101061.50
2022-12-19T10:46:46.811Z,101055.56
2022-12-19T10:47:57.878Z,101064.41
2022-12-19T10:49:12.185Z,101052.28
2022-12-19T10:50:28.127Z,101046.09
2022-12-19T10:51:32.941Z,101050.50
2022-12-19T10:52:52.464Z,101053.22
2022-12-19T10:53:59.985Z,101054.06
2022-12-19T10:55:34.179Z,101055.66
2022-12-19T10:56:38.253Z,101056.72
2022-12-19T10:57:41.949Z,101056.06
2022-12-19T10:58:57.543Z,101053.59
2022-12-19T11:00:04.341Z,101045.97
2022-12-19T11:01:28.299Z,101040.06
2022-12-19T11:02:51.595Z,101043.53
2022-12-19T11:04:36.788Z,101032.50
2022-12-19T11:05:58.294Z,101030.84
2022-12-19T11:07:09.132Z,101029.00
2022-12-19T11:08:27.426Z,101023.00
2022-12-19T11:09:37.295Z,101022.78
2022-12-19T11:12:44.945Z,101017.72
2022-12-19T11:16:55.562Z,101015.88
2022-12-19T11:18:21.970Z,101012.19
2022-12-19T11:19:43.486Z,101011.28
2022-12-19T11:24:08.288Z,101002.66
2022-12-19T11:27:51.982Z,100996.56
2022-12-19T11:29:18.575Z,100995.66
2022-12-19T11:29:39.633Z,100981.63
2022-12-19T11:29:40.990Z,100993.06
2022-12-19T11:30:25.890Z,100986.81
2022-12-19T11:30:37.769Z,100977.38
2022-12-19T11:30:48.003Z,100989.41
2022-12-19T11:33:16.911Z,100985.03
2022-12-19T11:34:27.099Z,100980.66
2022-12-19T11:35:36.659Z,100987.53
2022-12-19T11:37:02.942Z,100984.22
2022-12-19T11:38:13.011Z,100988.50
2022-12-19T11:39:58.507Z,100994.50
2022-12-19T11:41:55.377Z,100977.94
2022-12-19T11:43:49.552Z,100977.97
2022-12-19T11:45:18.409Z,100979.75
2022-12-19T11:46:53.797Z,100973.69
2022-12-19T11:48:14.431Z,100982.34
2022-12-19T11:49:49.581Z,100986.63
2022-12-19T11:51:21.335Z,100981.41
2022-12-19T11:53:19.071Z,100978.97
2022-12-19T11:54:27.935Z,100982.34
2022-12-19T11:56:16.341Z,100987.34
2022-12-19T11:57:20.797Z,100973.53
2022-12-19T11:58:31.203Z,100972.63
2022-12-19T11:59:40.350Z,100970.94
2022-12-19T12:01:12.651Z,100964.16
2022-12-19T12:02:53.152Z,100959.75
2022-12-19T12:04:23.206Z,100950.84
2022-12-19T12:05:47.738Z,100951.00
2022-12-19T12:06:57.844Z,100950.94
2022-12-19T12:10:27.948Z,100952.75
2022-12-19T12:15:56.089Z,100953.50
2022-12-19T12:15:58.522Z,100939.84
2022-12-19T12:26:11.543Z,100939.97
2022-12-19T12:29:44.469Z,100941.72
2022-12-19T12:31:04.170Z,100936.28
2022-12-19T12:31:08.956Z,100941.53
2022-12-19T12:31:14.478Z,100936.38
2022-12-19T12:31:28.141Z,100928.47
2022-12-19T12:31:39.476Z,100931.94
2022-12-19T12:31:41.322Z,100931.19
2022-12-19T12:31:42.783Z,100934.38
2022-12-19T12:35:33.275Z,100925.28
2022-12-19T12:35:52.365Z,100916.72
2022-12-19T12:37:15.183Z,100921.03
2022-12-19T12:39:00.955Z,100915.97
2022-12-19T12:40:33.002Z,100924.72
2022-12-19T12:42:26.670Z,100916.88
2022-12-19T12:43:55.074Z,100917.88
2022-12-19T12:45:03.212Z,100916.00
2022-12-19T12:46:16.635Z,100913.50
2022-12-19T12:47:29.497Z,100904.91
2022-12-19T12:49:01.129Z,100904.06
2022-12-19T12:50:16.060Z,100902.41
2022-12-19T12:51:21.579Z,100907.47
2022-12-19T12:52:48.059Z,100901.59
2022-12-19T12:54:05.281Z,100901.59
2022-12-19T12:55:40.230Z,100904.16
2022-12-19T12:56:48.819Z,100902.41
2022-12-19T12:57:53.118Z,100897.31
2022-12-19T12:58:57.276Z,100903.47
2022-12-19T13:00:27.089Z,100890.41
2022-12-19T13:01:41.026Z,100891.38
2022-12-19T13:03:13.978Z,100882.84
2022-12-19T13:04:35.721Z,100879.34
2022-12-19T13:06:03.766Z,100874.16
2022-12-19T13:07:31.060Z,100887.16
2022-12-19T13:08:48.166Z,100889.81
2022-12-19T13:10:31.520Z,100881.31
2022-12-19T13:12:12.483Z,100882.25
2022-12-19T13:13:22.517Z,100880.63
2022-12-19T13:14:34.711Z,100887.50
2022-12-19T13:15:41.788Z,100871.91
2022-12-19T13:16:46.229Z,100876.25
2022-12-19T13:17:49.722Z,100867.69
2022-12-19T13:19:28.805Z,100891.09
2022-12-19T13:20:46.513Z,100884.91
2022-12-19T13:22:31.755Z,100888.34
2022-12-19T13:23:46.107Z,100884.88
2022-12-19T13:24:58.045Z,100891.72
2022-12-19T13:26:02.211Z,100895.22
2022-12-19T13:27:25.770Z,100890.09
2022-12-19T13:28:29.580Z,100889.28
2022-12-19T13:29:54.035Z,100884.13
2022-12-19T13:31:19.820Z,100878.19
2022-12-19T13:32:46.998Z,100880.84
2022-12-19T13:33:56.016Z,100874.03
2022-12-19T13:35:23.837Z,100871.44
2022-12-19T13:39:48.076Z,100870.28
2022-12-19T13:39:51.209Z,100877.28
2022-12-19T13:40:33.141Z,100876.31
2022-12-19T13:42:01.781Z,100878.03
2022-12-19T13:43:40.212Z,100875.50
2022-12-19T13:44:44.723Z,100869.28
2022-12-19T13:46:02.285Z,100870.06
2022-12-19T13:47:07.059Z,100870.94
2022-12-19T13:48:23.988Z,100873.41
2022-12-19T13:49:34.673Z,100869.16
2022-12-19T13:50:44.896Z,100870.84
2022-12-19T13:51:56.971Z,100868.28
2022-12-19T13:53:32.426Z,100863.13
2022-12-19T13:54:50.729Z,100860.56
2022-12-19T13:55:59.904Z,100862.31
2022-12-19T13:57:09.345Z,100859.78
2022-12-19T13:58:47.514Z,100852.81
2022-12-19T14:00:00.515Z,100854.50
2022-12-19T14:01:21.487Z,100850.88
2022-12-19T14:02:44.299Z,100847.34
2022-12-19T14:03:54.416Z,100849.03
2022-12-19T14:04:58.835Z,100847.31
2022-12-19T14:06:20.116Z,100836.94
2022-12-19T14:07:37.359Z,100837.75
2022-12-19T14:08:41.504Z,100848.91
2022-12-19T14:11:26.857Z,100841.97
2022-12-19T14:11:41.254Z,100841.13
2022-12-19T14:14:00.503Z,100834.00